sensor_id;sensor_type;location;lat;lon;timestamp;temperature;humidity
53272;DHT22;39160;48.580;7.756;2022-12-24T00:04:22;14.40;99.90
53272;DHT22;39160;48.580;7.756;2022-12-24T00:09:12;14.40;99.90
53272;DHT22;39160;48.580;7.756;2022-12-24T00:14:03;14.30;99.90
53272;DHT22;39160;48.580;7.756;2022-12-24T00:18:54;14.30;99.90
53272;DHT22;39160;48.580;7.756;2022-12-24T00:23:45;14.20;99.90
53272;DHT22;39160;48.580;7.756;2022-12-24T00:28:35;14.20;99.90
53272;DHT22;39160;48.580;7.756;2022-12-24T00:33:26;14.20;99.90
53272;DHT22;39160;48.580;7.756;2022-12-24T00:38:16;14.20;99.90
53272;DHT22;39160;48.580;7.756;2022-12-24T00:43:07;14.20;99.90
53272;DHT22;39160;48.580;7.756;2022-12-24T00:47:58;14.30;99.90
53272;DHT22;39160;48.580;7.756;2022-12-24T00:52:48;14.30;99.90
53272;DHT22;39160;48.580;7.756;2022-12-24T00:57:39;14.30;99.90
53272;DHT22;39160;48.580;7.756;2022-12-24T01:02:30;14.20;99.90
53272;DHT22;39160;48.580;7.756;2022-12-24T01:07:20;14.20;99.90
53272;DHT22;39160;48.580;7.756;2022-12-24T01:12:11;14.20;99.90
53272;DHT22;39160;48.580;7.756;2022-12-24T01:17:02;14.10;99.90
53272;DHT22;39160;48.580;7.756;2022-12-24T01:21:52;14.10;99.90
53272;DHT22;39160;48.580;7.756;2022-12-24T01:26:43;14.10;99.90
53272;DHT22;39160;48.580;7.756;2022-12-24T01:31:34;14.10;99.90
53272;DHT22;39160;48.580;7.756;2022-12-24T01:36:25;14.10;99.90
53272;DHT22;39160;48.580;7.756;2022-12-24T01:41:17;14.10;99.90
53272;DHT22;39160;48.580;7.756;2022-12-24T01:46:29;14.10;99.90
53272;DHT22;39160;48.580;7.756;2022-12-24T01:51:38;14.10;99.90
53272;DHT22;39160;48.580;7.756;2022-12-24T01:56:31;14.10;99.90
53272;DHT22;39160;48.580;7.756;2022-12-24T02:01:23;14.10;99.90
53272;DHT22;39160;48.580;7.756;2022-12-24T02:06:14;14.10;99.90
53272;DHT22;39160;48.580;7.756;2022-12-24T02:11:11;14.10;99.90
53272;DHT22;39160;48.580;7.756;2022-12-24T02:21:38;14.00;99.90
53272;DHT22;39160;48.580;7.756;2022-12-24T02:32:00;14.00;99.90
53272;DHT22;39160;48.580;7.756;2022-12-24T02:37:10;13.90;99.90
53272;DHT22;39160;48.580;7.756;2022-12-24T02:42:01;13.90;99.90
53272;DHT22;39160;48.580;7.756;2022-12-24T02:46:56;13.80;99.90
53272;DHT22;39160;48.580;7.756;2022-12-24T02:51:48;13.80;99.90
53272;DHT22;39160;48.580;7.756;2022-12-24T02:57:15;13.70;99.90
53272;DHT22;39160;48.580;7.756;2022-12-24T03:07:36;13.80;99.90
53272;DHT22;39160;48.580;7.756;2022-12-24T03:12:40;13.70;99.90
53272;DHT22;39160;48.580;7.756;2022-12-24T03:17:34;13.70;99.90
53272;DHT22;39160;48.580;7.756;2022-12-24T03:22:26;13.70;99.90
53272;DHT22;39160;48.580;7.756;2022-12-24T03:27:17;13.70;99.90
53272;DHT22;39160;48.580;7.756;2022-12-24T03:32:08;13.60;99.90
53272;DHT22;39160;48.580;7.756;2022-12-24T03:36:59;13.60;99.90
53272;DHT22;39160;48.580;7.756;2022-12-24T03:41:49;13.70;99.90
53272;DHT22;39160;48.580;7.756;2022-12-24T03:46:40;13.70;99.90
53272;DHT22;39160;48.580;7.756;2022-12-24T03:51:31;13.70;99.90
53272;DHT22;39160;48.580;7.756;2022-12-24T03:56:23;13.70;99.90
53272;DHT22;39160;48.580;7.756;2022-12-24T04:01:17;13.70;99.90
53272;DHT22;39160;48.580;7.756;2022-12-24T04:06:15;13.80;99.90
53272;DHT22;39160;48.580;7.756;2022-12-24T04:11:09;13.70;99.90
53272;DHT22;39160;48.580;7.756;2022-12-24T04:16:05;13.70;99.90
53272;DHT22;39160;48.580;7.756;2022-12-24T04:20:57;13.70;99.90
53272;DHT22;39160;48.580;7.756;2022-12-24T04:25:48;13.60;99.90
53272;DHT22;39160;48.580;7.756;2022-12-24T04:30:39;13.60;99.90
53272;DHT22;39160;48.580;7.756;2022-12-24T04:35:30;13.60;99.90
53272;DHT22;39160;48.580;7.756;2022-12-24T04:40:21;13.70;99.90
53272;DHT22;39160;48.580;7.756;2022-12-24T04:45:11;13.60;99.90
53272;DHT22;39160;48.580;7.756;2022-12-24T04:50:02;13.60;99.90
53272;DHT22;39160;48.580;7.756;2022-12-24T04:54:53;13.60;99.90
53272;DHT22;39160;48.580;7.756;2022-12-24T04:59:43;13.60;99.90
53272;DHT22;39160;48.580;7.756;2022-12-24T05:04:34;13.60;99.90
53272;DHT22;39160;48.580;7.756;2022-12-24T05:09:25;13.60;99.90
53272;DHT22;39160;48.580;7.756;2022-12-24T05:14:16;13.60;99.90
53272;DHT22;39160;48.580;7.756;2022-12-24T05:19:06;13.60;99.90
53272;DHT22;39160;48.580;7.756;2022-12-24T05:23:57;13.60;99.90
53272;DHT22;39160;48.580;7.756;2022-12-24T05:29:07;13.60;99.90
53272;DHT22;39160;48.580;7.756;2022-12-24T05:33:58;13.50;99.90
53272;DHT22;39160;48.580;7.756;2022-12-24T05:38:49;13.40;99.90
53272;DHT22;39160;48.580;7.756;2022-12-24T05:43:40;13.30;99.90
53272;DHT22;39160;48.580;7.756;2022-12-24T05:48:31;13.30;99.90
53272;DHT22;39160;48.580;7.756;2022-12-24T05:53:22;13.20;99.90
53272;DHT22;39160;48.580;7.756;2022-12-24T05:58:12;13.10;99.90
53272;DHT22;39160;48.580;7.756;2022-12-24T06:03:03;13.10;99.90
53272;DHT22;39160;48.580;7.756;2022-12-24T06:07:54;13.00;99.90
53272;DHT22;39160;48.580;7.756;2022-12-24T06:12:44;13.00;99.90
53272;DHT22;39160;48.580;7.756;2022-12-24T06:17:35;12.90;99.90
53272;DHT22;39160;48.580;7.756;2022-12-24T06:22:26;12.90;99.90
53272;DHT22;39160;48.580;7.756;2022-12-24T06:27:17;12.80;99.90
53272;DHT22;39160;48.580;7.756;2022-12-24T06:32:08;12.80;99.90
53272;DHT22;39160;48.580;7.756;2022-12-24T06:36:59;12.80;99.90
53272;DHT22;39160;48.580;7.756;2022-12-24T06:41:49;12.80;99.90
53272;DHT22;39160;48.580;7.756;2022-12-24T06:46:40;12.80;99.90
53272;DHT22;39160;48.580;7.756;2022-12-24T06:51:34;12.80;99.90
53272;DHT22;39160;48.580;7.756;2022-12-24T06:56:24;12.90;99.90
53272;DHT22;39160;48.580;7.756;2022-12-24T07:01:17;13.00;99.90
53272;DHT22;39160;48.580;7.756;2022-12-24T07:06:26;13.00;99.90
53272;DHT22;39160;48.580;7.756;2022-12-24T07:11:17;13.10;99.90
53272;DHT22;39160;48.580;7.756;2022-12-24T07:16:08;13.00;99.90
53272;DHT22;39160;48.580;7.756;2022-12-24T07:21:01;13.00;99.90
53272;DHT22;39160;48.580;7.756;2022-12-24T07:25:52;13.10;99.90
53272;DHT22;39160;48.580;7.756;2022-12-24T07:30:43;13.10;99.90
53272;DHT22;39160;48.580;7.756;2022-12-24T07:35:33;13.20;99.90
53272;DHT22;39160;48.580;7.756;2022-12-24T07:40:24;13.10;99.90
53272;DHT22;39160;48.580;7.756;2022-12-24T07:45:15;13.10;99.90
53272;DHT22;39160;48.580;7.756;2022-12-24T07:50:06;13.20;99.90
53272;DHT22;39160;48.580;7.756;2022-12-24T07:54:57;13.20;99.90
53272;DHT22;39160;48.580;7.756;2022-12-24T07:59:48;13.30;99.90
53272;DHT22;39160;48.580;7.756;2022-12-24T08:04:38;13.20;99.90
53272;DHT22;39160;48.580;7.756;2022-12-24T08:09:35;13.20;99.90
53272;DHT22;39160;48.580;7.756;2022-12-24T08:14:30;13.30;99.90
53272;DHT22;39160;48.580;7.756;2022-12-24T08:19:20;13.30;99.90
53272;DHT22;39160;48.580;7.756;2022-12-24T08:24:11;13.30;99.90
53272;DHT22;39160;48.580;7.756;2022-12-24T08:29:03;13.30;99.90
53272;DHT22;39160;48.580;7.756;2022-12-24T08:33:54;13.40;99.90
53272;DHT22;39160;48.580;7.756;2022-12-24T08:38:45;13.50;99.90
53272;DHT22;39160;48.580;7.756;2022-12-24T08:43:35;13.60;99.90
53272;DHT22;39160;48.580;7.756;2022-12-24T08:48:26;13.60;99.90
53272;DHT22;39160;48.580;7.756;2022-12-24T08:53:16;13.50;99.90
53272;DHT22;39160;48.580;7.756;2022-12-24T08:58:07;13.60;99.90
53272;DHT22;39160;48.580;7.756;2022-12-24T09:02:58;13.50;99.90
53272;DHT22;39160;48.580;7.756;2022-12-24T09:07:48;13.50;99.90
53272;DHT22;39160;48.580;7.756;2022-12-24T09:12:39;13.50;99.90
53272;DHT22;39160;48.580;7.756;2022-12-24T09:17:30;13.40;99.90
53272;DHT22;39160;48.580;7.756;2022-12-24T09:22:21;13.40;99.90
53272;DHT22;39160;48.580;7.756;2022-12-24T09:27:11;13.60;99.90
53272;DHT22;39160;48.580;7.756;2022-12-24T09:32:02;13.50;99.90
53272;DHT22;39160;48.580;7.756;2022-12-24T09:36:53;13.50;99.90
53272;DHT22;39160;48.580;7.756;2022-12-24T09:46:56;13.30;99.90
53272;DHT22;39160;48.580;7.756;2022-12-24T09:52:07;13.30;99.90
53272;DHT22;39160;48.580;7.756;2022-12-24T09:57:07;13.30;99.90
53272;DHT22;39160;48.580;7.756;2022-12-24T10:02:06;13.30;99.90
53272;DHT22;39160;48.580;7.756;2022-12-24T10:07:21;13.50;99.90
53272;DHT22;39160;48.580;7.756;2022-12-24T10:12:21;13.60;99.90
53272;DHT22;39160;48.580;7.756;2022-12-24T10:27:41;13.70;99.90
53272;DHT22;39160;48.580;7.756;2022-12-24T10:32:34;13.70;99.90
53272;DHT22;39160;48.580;7.756;2022-12-24T10:37:28;13.60;99.90
53272;DHT22;39160;48.580;7.756;2022-12-24T10:42:20;13.70;99.90
53272;DHT22;39160;48.580;7.756;2022-12-24T10:47:13;13.70;99.90
53272;DHT22;39160;48.580;7.756;2022-12-24T10:52:05;13.80;99.90
53272;DHT22;39160;48.580;7.756;2022-12-24T10:56:58;13.90;99.90
53272;DHT22;39160;48.580;7.756;2022-12-24T11:01:49;14.00;99.90
53272;DHT22;39160;48.580;7.756;2022-12-24T11:07:00;14.10;99.90
53272;DHT22;39160;48.580;7.756;2022-12-24T11:11:51;14.30;99.90
53272;DHT22;39160;48.580;7.756;2022-12-24T11:16:54;14.30;99.90
53272;DHT22;39160;48.580;7.756;2022-12-24T11:21:45;14.40;99.90
53272;DHT22;39160;48.580;7.756;2022-12-24T11:26:35;14.30;99.90
53272;DHT22;39160;48.580;7.756;2022-12-24T11:31:26;14.20;99.90
53272;DHT22;39160;48.580;7.756;2022-12-24T11:36:22;14.20;99.90
53272;DHT22;39160;48.580;7.756;2022-12-24T11:41:13;14.20;99.90
53272;DHT22;39160;48.580;7.756;2022-12-24T11:46:55;14.10;99.90
53272;DHT22;39160;48.580;7.756;2022-12-24T11:51:26;14.10;99.90
53272;DHT22;39160;48.580;7.756;2022-12-24T11:56:36;14.20;99.90
53272;DHT22;39160;48.580;7.756;2022-12-24T12:01:38;14.20;99.90
53272;DHT22;39160;48.580;7.756;2022-12-24T12:06:58;14.20;99.90
53272;DHT22;39160;48.580;7.756;2022-12-24T12:11:57;14.30;99.90
53272;DHT22;39160;48.580;7.756;2022-12-24T12:21:53;14.10;99.90
53272;DHT22;39160;48.580;7.756;2022-12-24T12:26:44;14.20;99.90
53272;DHT22;39160;48.580;7.756;2022-12-24T12:31:47;14.10;99.90
53272;DHT22;39160;48.580;7.756;2022-12-24T12:37:04;14.10;99.90
53272;DHT22;39160;48.580;7.756;2022-12-24T12:42:31;14.10;99.90
53272;DHT22;39160;48.580;7.756;2022-12-24T12:57:38;14.20;99.90
53272;DHT22;39160;48.580;7.756;2022-12-24T13:18:21;14.20;99.90
53272;DHT22;39160;48.580;7.756;2022-12-24T13:23:19;14.30;99.90
53272;DHT22;39160;48.580;7.756;2022-12-24T13:33:58;14.20;99.90
53272;DHT22;39160;48.580;7.756;2022-12-24T13:43:16;14.40;99.90
53272;DHT22;39160;48.580;7.756;2022-12-24T13:53:01;14.60;99.90
53272;DHT22;39160;48.580;7.756;2022-12-24T14:08:10;14.40;99.90
53272;DHT22;39160;48.580;7.756;2022-12-24T14:13:03;14.20;99.90
53272;DHT22;39160;48.580;7.756;2022-12-24T14:17:59;14.10;99.90
53272;DHT22;39160;48.580;7.756;2022-12-24T14:22:50;14.00;99.90
53272;DHT22;39160;48.580;7.756;2022-12-24T14:27:52;14.00;99.90
53272;DHT22;39160;48.580;7.756;2022-12-24T14:32:44;13.90;99.90
53272;DHT22;39160;48.580;7.756;2022-12-24T14:37:35;13.90;99.90
53272;DHT22;39160;48.580;7.756;2022-12-24T14:48:22;13.80;99.90
53272;DHT22;39160;48.580;7.756;2022-12-24T15:03:14;13.70;99.90
53272;DHT22;39160;48.580;7.756;2022-12-24T15:08:09;13.60;99.90
53272;DHT22;39160;48.580;7.756;2022-12-24T15:13:25;13.60;99.90
53272;DHT22;39160;48.580;7.756;2022-12-24T15:18:21;13.50;99.90
53272;DHT22;39160;48.580;7.756;2022-12-24T15:23:21;13.50;99.90
53272;DHT22;39160;48.580;7.756;2022-12-24T15:28:18;13.50;99.90
53272;DHT22;39160;48.580;7.756;2022-12-24T15:33:09;13.60;99.90
53272;DHT22;39160;48.580;7.756;2022-12-24T15:38:02;13.50;99.90
53272;DHT22;39160;48.580;7.756;2022-12-24T15:42:55;13.40;99.90
53272;DHT22;39160;48.580;7.756;2022-12-24T15:48:00;13.40;99.90
53272;DHT22;39160;48.580;7.756;2022-12-24T15:53:12;13.30;99.90
53272;DHT22;39160;48.580;7.756;2022-12-24T15:58:23;13.30;99.90
53272;DHT22;39160;48.580;7.756;2022-12-24T16:03:19;13.20;99.90
53272;DHT22;39160;48.580;7.756;2022-12-24T16:13:22;13.20;99.90
53272;DHT22;39160;48.580;7.756;2022-12-24T16:18:19;13.20;99.90
53272;DHT22;39160;48.580;7.756;2022-12-24T16:23:22;13.20;99.90
53272;DHT22;39160;48.580;7.756;2022-12-24T16:28:14;13.20;99.90
53272;DHT22;39160;48.580;7.756;2022-12-24T16:33:10;13.20;99.90
53272;DHT22;39160;48.580;7.756;2022-12-24T16:38:02;13.10;99.90
53272;DHT22;39160;48.580;7.756;2022-12-24T16:42:54;13.00;99.90
53272;DHT22;39160;48.580;7.756;2022-12-24T16:48:05;13.00;99.90
53272;DHT22;39160;48.580;7.756;2022-12-24T16:52:57;13.00;99.90
53272;DHT22;39160;48.580;7.756;2022-12-24T16:57:48;12.90;99.90
53272;DHT22;39160;48.580;7.756;2022-12-24T17:02:38;12.90;99.90
53272;DHT22;39160;48.580;7.756;2022-12-24T17:07:29;12.90;99.90
53272;DHT22;39160;48.580;7.756;2022-12-24T17:12:19;13.00;99.90
53272;DHT22;39160;48.580;7.756;2022-12-24T17:17:28;12.90;99.90
53272;DHT22;39160;48.580;7.756;2022-12-24T17:22:19;12.90;99.90
53272;DHT22;39160;48.580;7.756;2022-12-24T17:27:10;12.90;99.90
53272;DHT22;39160;48.580;7.756;2022-12-24T17:32:00;12.90;99.90
53272;DHT22;39160;48.580;7.756;2022-12-24T17:36:51;12.90;99.90
53272;DHT22;39160;48.580;7.756;2022-12-24T17:41:42;12.90;99.90
53272;DHT22;39160;48.580;7.756;2022-12-24T17:46:33;12.80;99.90
53272;DHT22;39160;48.580;7.756;2022-12-24T17:51:23;12.80;99.90
53272;DHT22;39160;48.580;7.756;2022-12-24T17:56:14;12.80;99.90
53272;DHT22;39160;48.580;7.756;2022-12-24T18:01:09;12.80;99.90
53272;DHT22;39160;48.580;7.756;2022-12-24T18:06:05;12.80;99.90
53272;DHT22;39160;48.580;7.756;2022-12-24T18:10:57;12.70;99.90
53272;DHT22;39160;48.580;7.756;2022-12-24T18:15:48;12.70;99.90
53272;DHT22;39160;48.580;7.756;2022-12-24T18:20:38;12.70;99.90
53272;DHT22;39160;48.580;7.756;2022-12-24T18:25:29;12.70;99.90
53272;DHT22;39160;48.580;7.756;2022-12-24T18:30:20;12.70;99.90
53272;DHT22;39160;48.580;7.756;2022-12-24T18:35:11;12.60;99.90
53272;DHT22;39160;48.580;7.756;2022-12-24T18:40:02;12.60;99.90
53272;DHT22;39160;48.580;7.756;2022-12-24T18:44:54;12.60;99.90
53272;DHT22;39160;48.580;7.756;2022-12-24T18:49:44;12.60;99.90
53272;DHT22;39160;48.580;7.756;2022-12-24T18:54:39;12.70;99.90
53272;DHT22;39160;48.580;7.756;2022-12-24T18:59:29;12.60;99.90
53272;DHT22;39160;48.580;7.756;2022-12-24T19:04:20;12.60;99.90
53272;DHT22;39160;48.580;7.756;2022-12-24T19:09:11;12.60;99.90
53272;DHT22;39160;48.580;7.756;2022-12-24T19:14:03;12.50;99.90
53272;DHT22;39160;48.580;7.756;2022-12-24T19:18:54;12.50;99.90
53272;DHT22;39160;48.580;7.756;2022-12-24T19:23:45;12.30;99.90
53272;DHT22;39160;48.580;7.756;2022-12-24T19:28:36;12.30;99.90
53272;DHT22;39160;48.580;7.756;2022-12-24T19:33:28;12.30;99.90
53272;DHT22;39160;48.580;7.756;2022-12-24T19:38:19;12.30;99.90
53272;DHT22;39160;48.580;7.756;2022-12-24T19:43:09;12.40;99.90
53272;DHT22;39160;48.580;7.756;2022-12-24T19:48:00;12.40;99.90
53272;DHT22;39160;48.580;7.756;2022-12-24T19:52:50;12.40;99.90
53272;DHT22;39160;48.580;7.756;2022-12-24T19:57:41;12.50;99.90
53272;DHT22;39160;48.580;7.756;2022-12-24T20:02:33;12.40;99.90
53272;DHT22;39160;48.580;7.756;2022-12-24T20:07:23;12.40;99.90
53272;DHT22;39160;48.580;7.756;2022-12-24T20:12:14;12.40;99.90
53272;DHT22;39160;48.580;7.756;2022-12-24T20:17:05;12.40;99.90
53272;DHT22;39160;48.580;7.756;2022-12-24T20:21:55;12.40;99.90
53272;DHT22;39160;48.580;7.756;2022-12-24T20:26:46;12.30;99.90
53272;DHT22;39160;48.580;7.756;2022-12-24T20:31:37;12.20;99.90
53272;DHT22;39160;48.580;7.756;2022-12-24T20:36:29;12.20;99.90
53272;DHT22;39160;48.580;7.756;2022-12-24T20:41:21;12.20;99.90
53272;DHT22;39160;48.580;7.756;2022-12-24T20:46:13;12.20;99.90
53272;DHT22;39160;48.580;7.756;2022-12-24T20:51:05;12.20;99.90
53272;DHT22;39160;48.580;7.756;2022-12-24T20:55:56;12.10;99.90
53272;DHT22;39160;48.580;7.756;2022-12-24T21:00:47;12.10;99.90
53272;DHT22;39160;48.580;7.756;2022-12-24T21:05:39;12.10;99.90
53272;DHT22;39160;48.580;7.756;2022-12-24T21:10:31;12.00;99.90
53272;DHT22;39160;48.580;7.756;2022-12-24T21:15:24;12.00;99.90
53272;DHT22;39160;48.580;7.756;2022-12-24T21:20:15;11.90;99.90
53272;DHT22;39160;48.580;7.756;2022-12-24T21:25:07;12.00;99.90
53272;DHT22;39160;48.580;7.756;2022-12-24T21:29:58;12.00;99.90
53272;DHT22;39160;48.580;7.756;2022-12-24T21:34:49;12.00;99.90
53272;DHT22;39160;48.580;7.756;2022-12-24T21:39:39;12.00;99.90
53272;DHT22;39160;48.580;7.756;2022-12-24T21:44:30;11.90;99.90
53272;DHT22;39160;48.580;7.756;2022-12-24T21:49:21;11.90;99.90
53272;DHT22;39160;48.580;7.756;2022-12-24T21:54:30;12.00;99.90
53272;DHT22;39160;48.580;7.756;2022-12-24T21:59:20;12.00;99.90
53272;DHT22;39160;48.580;7.756;2022-12-24T22:04:11;11.90;99.90
53272;DHT22;39160;48.580;7.756;2022-12-24T22:09:02;12.00;99.90
53272;DHT22;39160;48.580;7.756;2022-12-24T22:14:11;11.90;99.90
53272;DHT22;39160;48.580;7.756;2022-12-24T22:19:02;11.90;99.90
53272;DHT22;39160;48.580;7.756;2022-12-24T22:23:52;12.00;99.90
53272;DHT22;39160;48.580;7.756;2022-12-24T22:28:43;12.00;99.90
53272;DHT22;39160;48.580;7.756;2022-12-24T22:33:33;11.90;99.90
53272;DHT22;39160;48.580;7.756;2022-12-24T22:38:25;11.90;99.90
53272;DHT22;39160;48.580;7.756;2022-12-24T22:43:16;11.90;99.90
53272;DHT22;39160;48.580;7.756;2022-12-24T22:48:06;11.80;99.90
53272;DHT22;39160;48.580;7.756;2022-12-24T22:52:57;11.80;99.90
53272;DHT22;39160;48.580;7.756;2022-12-24T22:57:48;11.80;99.90
53272;DHT22;39160;48.580;7.756;2022-12-24T23:02:39;11.90;99.90
53272;DHT22;39160;48.580;7.756;2022-12-24T23:07:29;12.00;99.90
53272;DHT22;39160;48.580;7.756;2022-12-24T23:12:20;12.00;99.90
53272;DHT22;39160;48.580;7.756;2022-12-24T23:17:30;11.90;99.90
53272;DHT22;39160;48.580;7.756;2022-12-24T23:22:21;11.90;99.90
53272;DHT22;39160;48.580;7.756;2022-12-24T23:27:11;11.90;99.90
53272;DHT22;39160;48.580;7.756;2022-12-24T23:32:02;11.90;99.90
53272;DHT22;39160;48.580;7.756;2022-12-24T23:36:53;12.00;99.90
53272;DHT22;39160;48.580;7.756;2022-12-24T23:41:43;11.90;99.90
53272;DHT22;39160;48.580;7.756;2022-12-24T23:46:34;11.90;99.90
53272;DHT22;39160;48.580;7.756;2022-12-24T23:51:27;11.90;99.90
53272;DHT22;39160;48.580;7.756;2022-12-24T23:56:18;11.90;99.90
